Time;durP1;ratioP1;P1;durP2;ratioP2;P2;SDS_P1;SDS_P2;PMS_P1;PMS_P2;Temp;Humidity;BMP_temperature;BMP_pressure;BME280_temperature;BME280_humidity;BME280_pressure;Samples;Min_cycle;Max_cycle;Signal;HPM_P1;HPM_P2
2022/10/18 00:02:13;;;;;;;5.47;3.85;;;;;;;;;;5007889;28;20018;-45
2022/10/18 00:04:38;;;;;;;4.35;3.72;;;;;;;;;;5008092;28;20471;-43
2022/10/18 00:07:03;;;;;;;5.75;3.70;;;;;;;;;;5007052;28;20113;-45
2022/10/18 00:09:29;;;;;;;4.53;3.72;;;;;;;;;;5005103;28;20096;-44
2022/10/18 00:11:54;;;;;;;4.32;3.47;;;;;;;;;;5005086;28;20026;-45
2022/10/18 00:14:20;;;;;;;5.70;3.42;;;;;;;;;;5008726;28;20045;-44
2022/10/18 00:16:45;;;;;;;4.00;3.55;;;;;;;;;;5008084;28;20037;-43
2022/10/18 00:19:10;;;;;;;5.13;3.67;;;;;;;;;;5007173;28;20036;-42
2022/10/18 00:21:36;;;;;;;3.95;3.53;;;;;;;;;;5007190;28;20516;-43
2022/10/18 00:24:02;;;;;;;3.70;3.40;;;;;;;;;;5007627;28;20026;-43
2022/10/18 00:26:29;;;;;;;6.85;3.55;;;;;;;;;;5007918;28;20058;-43
2022/10/18 00:29:00;;;;;;;7.90;4.00;;;;;;;;;;5001511;28;20022;-47
2022/10/18 00:31:31;;;;;;;4.00;3.60;;;;;;;;;;5000426;28;20045;-46
2022/10/18 00:34:03;;;;;;;5.93;3.75;;;;;;;;;;5005221;28;20030;-43
2022/10/18 00:36:30;;;;;;;4.80;3.45;;;;;;;;;;5010257;28;20045;-44
2022/10/18 00:38:56;;;;;;;5.88;4.57;;;;;;;;;;5010043;28;20036;-45
2022/10/18 00:41:24;;;;;;;6.53;4.05;;;;;;;;;;5011731;28;20045;-44
2022/10/18 00:43:57;;;;;;;6.60;3.67;;;;;;;;;;5010300;28;20084;-44
2022/10/18 00:46:24;;;;;;;5.93;4.18;;;;;;;;;;5009338;28;20030;-47
2022/10/18 00:48:51;;;;;;;5.75;4.05;;;;;;;;;;5007187;28;20033;-44
2022/10/18 00:51:18;;;;;;;4.47;3.78;;;;;;;;;;5010601;28;20042;-46
2022/10/18 00:53:44;;;;;;;5.45;4.20;;;;;;;;;;5008326;28;20025;-47
2022/10/18 00:56:11;;;;;;;4.35;3.90;;;;;;;;;;5008784;28;20038;-42
2022/10/18 00:58:36;;;;;;;5.93;4.00;;;;;;;;;;5010010;28;20038;-45
2022/10/18 01:01:02;;;;;;;6.80;4.05;;;;;;;;;;5006368;28;20050;-43
2022/10/18 01:03:27;;;;;;;6.65;4.00;;;;;;;;;;5010555;28;20042;-44
2022/10/18 01:05:52;;;;;;;4.40;4.00;;;;;;;;;;5010806;28;20048;-42
2022/10/18 01:08:41;;;;;;;10.57;4.25;;;;;;;;;;5011494;28;20101;-44
2022/10/18 01:11:12;;;;;;;9.52;4.50;;;;;;;;;;5009888;28;20045;-43
2022/10/18 01:13:40;;;;;;;6.18;4.32;;;;;;;;;;5009159;28;20025;-43
2022/10/18 01:16:23;;;;;;;5.13;4.00;;;;;;;;;;5010381;28;20154;-44
2022/10/18 01:18:58;;;;;;;7.30;4.22;;;;;;;;;;5007628;28;20046;-46
2022/10/18 01:21:53;;;;;;;5.43;4.13;;;;;;;;;;5010326;28;20104;-43
2022/10/18 01:24:52;;;;;;;6.47;4.63;;;;;;;;;;5008218;28;20033;-45
2022/10/18 01:27:35;;;;;;;8.02;3.90;;;;;;;;;;5010688;28;20053;-46
2022/10/18 01:30:23;;;;;;;4.95;4.40;;;;;;;;;;5008611;28;20061;-45
2022/10/18 01:32:52;;;;;;;5.70;4.03;;;;;;;;;;5010971;28;20651;-43
2022/10/18 01:35:25;;;;;;;7.32;4.35;;;;;;;;;;5005175;28;20121;-46
2022/10/18 01:37:52;;;;;;;7.30;4.30;;;;;;;;;;5009838;28;20117;-47
2022/10/18 01:40:21;;;;;;;4.35;4.00;;;;;;;;;;5008538;28;20041;-43
2022/10/18 01:42:48;;;;;;;5.47;3.63;;;;;;;;;;5010593;28;20045;-42
2022/10/18 01:45:15;;;;;;;7.63;4.25;;;;;;;;;;5006922;28;21707;-45
2022/10/18 01:47:44;;;;;;;7.18;4.45;;;;;;;;;;5009253;28;20568;-44
2022/10/18 01:50:09;;;;;;;7.97;4.18;;;;;;;;;;5006647;28;20269;-43
2022/10/18 01:52:35;;;;;;;5.60;4.05;;;;;;;;;;5010697;28;20066;-43
2022/10/18 01:55:02;;;;;;;6.22;4.22;;;;;;;;;;5010900;28;20056;-43
2022/10/18 01:57:40;;;;;;;7.18;4.03;;;;;;;;;;5008784;28;20030;-43
2022/10/18 02:00:14;;;;;;;5.35;4.10;;;;;;;;;;5004255;28;20048;-43
2022/10/18 02:02:58;;;;;;;5.68;4.15;;;;;;;;;;5009591;28;20072;-43
2022/10/18 02:05:23;;;;;;;5.00;3.97;;;;;;;;;;5007602;28;20052;-44
2022/10/18 02:08:17;;;;;;;4.85;3.95;;;;;;;;;;5008797;28;20034;-43
2022/10/18 02:10:47;;;;;;;4.80;4.15;;;;;;;;;;5008310;28;20041;-45
2022/10/18 02:13:16;;;;;;;8.07;3.97;;;;;;;;;;5008283;28;20521;-45
2022/10/18 02:15:45;;;;;;;9.85;3.80;;;;;;;;;;5008405;28;20038;-43
2022/10/18 02:18:16;;;;;;;4.90;4.38;;;;;;;;;;5006377;28;20022;-43
2022/10/18 02:20:42;;;;;;;5.03;3.97;;;;;;;;;;5007520;28;20064;-43
2022/10/18 02:23:09;;;;;;;5.15;4.15;;;;;;;;;;5008256;28;20030;-43
2022/10/18 02:25:35;;;;;;;4.80;4.30;;;;;;;;;;5006456;28;20487;-46
2022/10/18 02:28:02;;;;;;;6.82;3.85;;;;;;;;;;5009204;28;20470;-43
2022/10/18 02:30:45;;;;;;;5.28;3.70;;;;;;;;;;5008884;28;20259;-49
2022/10/18 02:33:16;;;;;;;3.97;3.67;;;;;;;;;;5008060;28;20038;-44
2022/10/18 02:35:50;;;;;;;6.93;4.30;;;;;;;;;;5003764;28;20056;-43
2022/10/18 02:38:18;;;;;;;5.38;4.07;;;;;;;;;;5004199;28;20037;-44
2022/10/18 02:40:43;;;;;;;4.63;4.00;;;;;;;;;;5006368;28;20034;-48
2022/10/18 02:43:08;;;;;;;4.90;4.20;;;;;;;;;;5009220;28;20053;-43
2022/10/18 02:45:34;;;;;;;7.63;4.40;;;;;;;;;;5008254;28;20089;-43
2022/10/18 02:47:59;;;;;;;5.82;4.53;;;;;;;;;;5009448;28;20025;-43
2022/10/18 02:50:25;;;;;;;7.32;4.50;;;;;;;;;;5006910;28;20034;-43
2022/10/18 02:52:50;;;;;;;10.57;4.68;;;;;;;;;;5010105;28;20031;-47
2022/10/18 02:55:15;;;;;;;6.68;4.35;;;;;;;;;;5006404;28;20035;-47
2022/10/18 02:57:41;;;;;;;6.13;3.97;;;;;;;;;;5006602;28;20038;-45
2022/10/18 03:00:07;;;;;;;5.13;4.28;;;;;;;;;;5006551;28;20156;-48
2022/10/18 03:02:32;;;;;;;8.18;4.03;;;;;;;;;;5007961;28;20390;-45
2022/10/18 03:04:58;;;;;;;4.43;4.03;;;;;;;;;;5007952;28;20037;-43
2022/10/18 03:07:23;;;;;;;4.50;3.65;;;;;;;;;;5008824;28;20038;-45
2022/10/18 03:09:48;;;;;;;4.30;3.90;;;;;;;;;;5006159;28;20430;-42
2022/10/18 03:12:14;;;;;;;5.38;4.13;;;;;;;;;;5006649;28;20037;-44
2022/10/18 03:14:39;;;;;;;9.73;4.55;;;;;;;;;;5004839;28;20041;-44
2022/10/18 03:17:05;;;;;;;5.93;4.10;;;;;;;;;;5007647;28;20038;-43
2022/10/18 03:19:30;;;;;;;6.00;4.15;;;;;;;;;;5006013;28;20126;-43
2022/10/18 03:21:55;;;;;;;8.52;4.05;;;;;;;;;;5008890;28;20025;-45
2022/10/18 03:24:21;;;;;;;6.75;4.30;;;;;;;;;;5009632;28;20492;-44
2022/10/18 03:26:46;;;;;;;6.03;4.30;;;;;;;;;;5007817;28;20033;-44
2022/10/18 03:29:11;;;;;;;6.65;3.97;;;;;;;;;;5004895;28;20022;-48
2022/10/18 03:31:37;;;;;;;7.32;4.82;;;;;;;;;;5006925;28;20439;-43
2022/10/18 03:34:02;;;;;;;6.72;4.05;;;;;;;;;;5006720;28;20021;-44
2022/10/18 03:36:28;;;;;;;6.90;4.28;;;;;;;;;;5005454;28;20498;-44
2022/10/18 03:38:53;;;;;;;8.50;4.22;;;;;;;;;;5004828;28;20030;-47
2022/10/18 03:41:19;;;;;;;6.00;4.15;;;;;;;;;;5009160;28;20133;-44
2022/10/18 03:43:45;;;;;;;4.75;4.38;;;;;;;;;;5006674;28;20030;-44
2022/10/18 03:46:11;;;;;;;7.55;4.20;;;;;;;;;;5008319;28;20030;-44
2022/10/18 03:48:36;;;;;;;5.90;4.43;;;;;;;;;;5007525;28;20042;-47
2022/10/18 03:51:01;;;;;;;5.38;4.53;;;;;;;;;;5006007;28;20030;-43
2022/10/18 03:53:27;;;;;;;5.13;4.45;;;;;;;;;;5006612;28;20271;-48
2022/10/18 03:55:54;;;;;;;6.03;4.53;;;;;;;;;;5007728;28;20042;-45
2022/10/18 03:58:19;;;;;;;5.68;4.32;;;;;;;;;;5007569;28;20033;-45
2022/10/18 04:00:48;;;;;;;5.40;4.63;;;;;;;;;;5004545;28;20089;-46
2022/10/18 04:03:14;;;;;;;5.85;4.65;;;;;;;;;;5005015;28;20529;-46
2022/10/18 04:05:39;;;;;;;5.30;4.60;;;;;;;;;;5007960;28;20121;-46
2022/10/18 04:08:04;;;;;;;6.95;4.53;;;;;;;;;;5006743;28;20500;-44
2022/10/18 04:10:30;;;;;;;5.85;4.32;;;;;;;;;;5009063;28;20033;-44
2022/10/18 04:12:55;;;;;;;8.32;4.63;;;;;;;;;;5006601;28;20486;-46
2022/10/18 04:15:20;;;;;;;4.90;4.28;;;;;;;;;;5011264;28;20038;-47
2022/10/18 04:17:46;;;;;;;4.78;4.30;;;;;;;;;;5009418;28;20091;-46
2022/10/18 04:20:12;;;;;;;6.28;4.25;;;;;;;;;;5009058;28;20041;-45
2022/10/18 04:22:37;;;;;;;5.55;4.40;;;;;;;;;;5010459;28;20470;-43
2022/10/18 04:25:03;;;;;;;8.05;4.88;;;;;;;;;;5010305;28;20034;-44
2022/10/18 04:27:29;;;;;;;7.22;3.97;;;;;;;;;;5007245;28;20029;-47
2022/10/18 04:29:54;;;;;;;9.63;4.57;;;;;;;;;;5010168;28;20033;-43
2022/10/18 04:32:19;;;;;;;5.20;4.68;;;;;;;;;;5010256;28;20022;-44
2022/10/18 04:34:45;;;;;;;8.38;5.05;;;;;;;;;;5008770;28;20053;-44
2022/10/18 04:37:10;;;;;;;5.78;4.13;;;;;;;;;;5007411;28;20504;-43
2022/10/18 04:39:36;;;;;;;7.95;4.60;;;;;;;;;;5009507;28;20083;-48
2022/10/18 04:42:01;;;;;;;7.40;4.40;;;;;;;;;;5010096;28;20045;-45
2022/10/18 04:44:26;;;;;;;6.63;4.53;;;;;;;;;;5009610;28;20026;-48
2022/10/18 04:46:52;;;;;;;9.13;5.28;;;;;;;;;;5007282;28;20038;-45
2022/10/18 04:49:17;;;;;;;7.15;4.45;;;;;;;;;;5009225;28;20065;-43
2022/10/18 04:51:42;;;;;;;6.97;4.80;;;;;;;;;;5008225;28;20050;-45
2022/10/18 04:54:08;;;;;;;7.03;4.80;;;;;;;;;;5008866;28;20030;-44
2022/10/18 04:56:33;;;;;;;5.97;4.68;;;;;;;;;;5011272;28;20054;-43
2022/10/18 04:58:58;;;;;;;6.35;4.82;;;;;;;;;;5011545;28;20029;-43
2022/10/18 05:01:24;;;;;;;5.22;4.57;;;;;;;;;;5009376;28;20505;-46
2022/10/18 05:03:53;;;;;;;5.50;4.43;;;;;;;;;;5009927;28;20034;-46
2022/10/18 05:06:19;;;;;;;6.97;4.40;;;;;;;;;;5008256;28;20053;-46
2022/10/18 05:08:44;;;;;;;5.22;4.78;;;;;;;;;;5000294;28;20033;-43
2022/10/18 05:11:10;;;;;;;5.88;4.63;;;;;;;;;;5000212;28;20175;-47
2022/10/18 05:13:37;;;;;;;7.75;4.43;;;;;;;;;;5007354;28;20034;-43
2022/10/18 05:16:03;;;;;;;7.95;4.25;;;;;;;;;;5007910;28;20167;-45
2022/10/18 05:18:28;;;;;;;5.82;4.78;;;;;;;;;;5009396;28;20041;-47
2022/10/18 05:20:53;;;;;;;4.78;4.30;;;;;;;;;;5005928;28;20042;-45
2022/10/18 05:23:19;;;;;;;7.78;4.43;;;;;;;;;;5006605;28;20486;-47
2022/10/18 05:25:45;;;;;;;5.38;4.40;;;;;;;;;;5005318;28;20034;-43
2022/10/18 05:28:10;;;;;;;5.40;4.22;;;;;;;;;;5008283;28;20154;-45
2022/10/18 05:30:39;;;;;;;4.40;4.00;;;;;;;;;;5008757;28;20786;-44
2022/10/18 05:33:06;;;;;;;10.02;4.60;;;;;;;;;;5005198;28;20800;-45
2022/10/18 05:35:32;;;;;;;7.72;4.30;;;;;;;;;;5010385;28;20045;-44
2022/10/18 05:37:57;;;;;;;4.78;4.38;;;;;;;;;;5008370;28;20033;-46
2022/10/18 05:40:22;;;;;;;6.65;4.30;;;;;;;;;;5005863;28;20041;-44
2022/10/18 05:42:51;;;;;;;4.65;4.25;;;;;;;;;;5003317;28;20049;-43
2022/10/18 05:45:16;;;;;;;7.03;4.00;;;;;;;;;;5003158;28;20045;-47
2022/10/18 05:47:41;;;;;;;6.68;4.30;;;;;;;;;;5006796;28;20033;-47
2022/10/18 05:50:07;;;;;;;8.90;4.28;;;;;;;;;;5008975;28;20038;-44
2022/10/18 05:52:32;;;;;;;6.20;4.35;;;;;;;;;;5000826;28;20021;-43
2022/10/18 05:54:58;;;;;;;6.93;4.55;;;;;;;;;;5005943;28;20100;-47
2022/10/18 05:57:23;;;;;;;4.25;3.95;;;;;;;;;;5006219;28;20038;-44
2022/10/18 05:59:48;;;;;;;9.00;4.35;;;;;;;;;;5009238;28;20509;-45
2022/10/18 06:02:14;;;;;;;4.38;3.97;;;;;;;;;;5008456;28;20058;-43
2022/10/18 06:04:39;;;;;;;6.53;4.15;;;;;;;;;;5006752;28;20040;-43
2022/10/18 06:07:11;;;;;;;5.80;4.55;;;;;;;;;;5009795;28;20044;-44
2022/10/18 06:09:37;;;;;;;5.60;3.83;;;;;;;;;;5008496;28;20153;-43
2022/10/18 06:12:04;;;;;;;5.88;4.28;;;;;;;;;;5006464;28;20029;-43
2022/10/18 06:14:29;;;;;;;4.22;3.83;;;;;;;;;;5002094;28;20789;-44
2022/10/18 06:16:55;;;;;;;8.52;4.40;;;;;;;;;;5004196;28;20171;-44
2022/10/18 06:19:21;;;;;;;5.03;3.80;;;;;;;;;;5010548;28;20034;-45
2022/10/18 06:21:47;;;;;;;5.25;4.22;;;;;;;;;;5009526;28;20391;-46
2022/10/18 06:24:12;;;;;;;6.57;4.22;;;;;;;;;;5006683;28;20041;-43
2022/10/18 06:26:37;;;;;;;7.13;4.60;;;;;;;;;;5004669;28;20054;-44
2022/10/18 06:29:03;;;;;;;9.77;4.30;;;;;;;;;;5007642;28;20022;-47
2022/10/18 06:31:28;;;;;;;5.88;4.28;;;;;;;;;;5007570;28;20710;-46
2022/10/18 06:33:56;;;;;;;11.30;4.65;;;;;;;;;;5007375;28;20045;-44
2022/10/18 06:36:22;;;;;;;8.38;4.15;;;;;;;;;;5008418;28;20184;-44
2022/10/18 06:38:47;;;;;;;16.60;5.53;;;;;;;;;;5007622;28;20559;-45
2022/10/18 06:41:13;;;;;;;11.23;5.88;;;;;;;;;;5005999;28;20069;-44
2022/10/18 06:43:38;;;;;;;15.43;5.88;;;;;;;;;;5006857;28;20031;-43
2022/10/18 06:46:06;;;;;;;6.65;4.57;;;;;;;;;;5007963;28;20038;-48
2022/10/18 06:48:33;;;;;;;10.07;5.30;;;;;;;;;;5008163;28;20028;-48
2022/10/18 06:51:01;;;;;;;7.15;4.68;;;;;;;;;;5009252;28;20440;-43
2022/10/18 06:53:29;;;;;;;8.95;4.55;;;;;;;;;;5006692;28;20049;-45
2022/10/18 06:56:03;;;;;;;9.25;4.72;;;;;;;;;;5007947;28;20114;-43
2022/10/18 06:58:30;;;;;;;5.78;4.93;;;;;;;;;;5004239;28;20045;-46
2022/10/18 07:00:56;;;;;;;6.53;4.70;;;;;;;;;;5006561;28;20041;-45
2022/10/18 07:03:22;;;;;;;6.63;4.45;;;;;;;;;;5006456;28;20117;-44
2022/10/18 07:05:50;;;;;;;11.02;4.68;;;;;;;;;;5007892;28;20113;-45
2022/10/18 07:08:16;;;;;;;5.40;4.72;;;;;;;;;;5008749;28;20033;-44
2022/10/18 07:10:49;;;;;;;6.60;4.40;;;;;;;;;;5006202;28;20046;-46
2022/10/18 07:13:14;;;;;;;5.60;4.88;;;;;;;;;;5008908;28;20026;-44
2022/10/18 07:15:39;;;;;;;11.75;4.38;;;;;;;;;;5007613;28;20053;-44
2022/10/18 07:18:05;;;;;;;5.75;4.60;;;;;;;;;;5006143;28;20050;-43
2022/10/18 07:20:30;;;;;;;9.82;4.25;;;;;;;;;;5007885;28;20037;-45
2022/10/18 07:22:56;;;;;;;12.55;4.43;;;;;;;;;;5008080;28;20106;-44
2022/10/18 07:25:21;;;;;;;6.85;4.03;;;;;;;;;;5007538;28;20038;-46
2022/10/18 07:27:46;;;;;;;6.95;3.85;;;;;;;;;;5008432;28;20033;-47
2022/10/18 07:30:12;;;;;;;5.15;4.05;;;;;;;;;;5007064;28;20056;-47
2022/10/18 07:32:37;;;;;;;11.27;4.63;;;;;;;;;;5008379;28;20036;-47
2022/10/18 07:35:02;;;;;;;8.18;4.25;;;;;;;;;;5005556;28;20038;-44
2022/10/18 07:37:29;;;;;;;7.95;4.20;;;;;;;;;;5007077;28;20045;-44
2022/10/18 07:39:54;;;;;;;6.32;4.50;;;;;;;;;;5006968;28;20034;-43
2022/10/18 07:42:19;;;;;;;8.77;3.85;;;;;;;;;;5007871;28;20140;-48
2022/10/18 07:44:45;;;;;;;9.05;4.18;;;;;;;;;;5007477;28;20041;-45
2022/10/18 07:47:10;;;;;;;7.57;3.75;;;;;;;;;;5008227;28;20038;-44
2022/10/18 07:49:35;;;;;;;12.18;3.80;;;;;;;;;;5004621;28;20052;-45
2022/10/18 07:52:01;;;;;;;9.35;4.00;;;;;;;;;;5007553;28;20080;-44
2022/10/18 07:54:26;;;;;;;4.70;4.30;;;;;;;;;;5004173;28;20030;-44
2022/10/18 07:56:52;;;;;;;12.05;4.32;;;;;;;;;;5008557;28;20092;-45
2022/10/18 07:59:17;;;;;;;6.80;4.13;;;;;;;;;;5006487;28;20032;-44
2022/10/18 08:01:42;;;;;;;5.60;4.18;;;;;;;;;;5008286;28;20036;-44
2022/10/18 08:04:08;;;;;;;6.28;3.97;;;;;;;;;;5005878;28;20032;-47
2022/10/18 08:06:33;;;;;;;8.35;4.10;;;;;;;;;;5006950;28;20057;-45
2022/10/18 08:08:58;;;;;;;10.93;3.72;;;;;;;;;;5007177;28;20030;-48
2022/10/18 08:11:25;;;;;;;8.82;3.85;;;;;;;;;;5006840;28;20058;-44
2022/10/18 08:13:52;;;;;;;8.93;4.00;;;;;;;;;;5008809;28;20026;-43
2022/10/18 08:16:20;;;;;;;6.22;3.80;;;;;;;;;;5006849;28;20042;-47
2022/10/18 08:18:45;;;;;;;4.80;3.33;;;;;;;;;;5006931;28;20083;-45
2022/10/18 08:21:12;;;;;;;6.40;4.10;;;;;;;;;;5004928;28;20042;-48
2022/10/18 08:23:38;;;;;;;6.13;3.55;;;;;;;;;;5005248;28;20184;-44
2022/10/18 08:26:09;;;;;;;5.95;3.75;;;;;;;;;;5007556;28;20504;-47
2022/10/18 08:28:38;;;;;;;4.83;3.90;;;;;;;;;;5007008;28;20125;-49
2022/10/18 08:31:05;;;;;;;6.68;3.65;;;;;;;;;;5006556;28;20443;-46
2022/10/18 08:33:31;;;;;;;6.57;4.10;;;;;;;;;;5007220;28;20555;-48
2022/10/18 08:35:57;;;;;;;13.90;4.13;;;;;;;;;;5008578;28;20038;-46
2022/10/18 08:38:23;;;;;;;7.38;3.83;;;;;;;;;;5006828;28;20494;-49
2022/10/18 08:40:49;;;;;;;5.97;3.90;;;;;;;;;;5004988;28;20077;-46
2022/10/18 08:43:27;;;;;;;6.68;3.38;;;;;;;;;;5004659;28;20390;-45
2022/10/18 08:45:53;;;;;;;5.28;3.40;;;;;;;;;;5006761;28;20049;-46
2022/10/18 08:48:35;;;;;;;6.63;3.58;;;;;;;;;;5008513;28;20034;-44
2022/10/18 08:51:04;;;;;;;12.60;3.30;;;;;;;;;;5005698;28;20511;-45
2022/10/18 08:53:44;;;;;;;3.42;2.30;;;;;;;;;;5003957;28;20711;-44
2022/10/18 08:56:13;;;;;;;4.75;2.42;;;;;;;;;;5004950;28;20489;-47
2022/10/18 08:58:42;;;;;;;5.05;3.10;;;;;;;;;;5009275;28;20048;-46
2022/10/18 09:01:14;;;;;;;4.80;2.88;;;;;;;;;;5009516;28;20052;-45
2022/10/18 09:04:19;;;;;;;7.28;2.92;;;;;;;;;;5005704;28;20571;-48
2022/10/18 09:07:15;;;;;;;3.33;2.47;;;;;;;;;;5005772;28;20503;-48
2022/10/18 09:10:07;;;;;;;3.45;2.33;;;;;;;;;;5008885;28;20386;-45
2022/10/18 09:12:38;;;;;;;;;;;;;;;;;;5009191;28;20052;-48
2022/10/18 09:15:37;;;;;;;6.28;2.67;;;;;;;;;;5007887;28;20395;-45
2022/10/18 09:18:30;;;;;;;3.95;2.90;;;;;;;;;;5009185;28;20034;-48
2022/10/18 09:20:58;;;;;;;6.30;2.70;;;;;;;;;;5007733;28;20620;-44
2022/10/18 09:23:50;;;;;;;6.90;3.28;;;;;;;;;;5010449;28;20083;-51
2022/10/18 09:26:20;;;;;;;3.03;2.38;;;;;;;;;;5006747;28;20038;-48
2022/10/18 09:29:00;;;;;;;3.58;2.33;;;;;;;;;;5005198;28;20117;-46
2022/10/18 09:32:04;;;;;;;3.03;2.08;;;;;;;;;;5009805;28;20498;-47
2022/10/18 09:34:47;;;;;;;3.50;2.80;;;;;;;;;;5010414;28;20030;-49
2022/10/18 09:37:15;;;;;;;10.27;2.88;;;;;;;;;;5007939;28;20065;-46
2022/10/18 09:39:41;;;;;;;9.05;2.65;;;;;;;;;;5010632;28;20457;-50
2022/10/18 09:42:28;;;;;;;6.70;2.60;;;;;;;;;;5008244;28;20038;-50
2022/10/18 09:45:26;;;;;;;9.70;2.60;;;;;;;;;;5006666;28;20060;-44
2022/10/18 09:48:02;;;;;;;4.43;2.10;;;;;;;;;;4992724;28;20118;-44
2022/10/18 09:50:59;;;;;;;7.25;2.58;;;;;;;;;;5010037;28;20040;-47
2022/10/18 09:53:50;;;;;;;6.22;2.38;;;;;;;;;;5001244;28;20379;-45
2022/10/18 09:56:27;;;;;;;6.00;2.60;;;;;;;;;;5009184;28;20454;-49
2022/10/18 09:58:52;;;;;;;4.28;2.47;;;;;;;;;;5010027;28;20565;-47
2022/10/18 10:01:21;;;;;;;5.85;2.67;;;;;;;;;;5008028;28;20129;-47
2022/10/18 10:03:47;;;;;;;4.97;2.28;;;;;;;;;;5004940;28;20080;-48
2022/10/18 10:06:15;;;;;;;5.00;2.85;;;;;;;;;;5008476;28;20038;-46
2022/10/18 10:08:47;;;;;;;9.95;2.55;;;;;;;;;;5005834;28;20037;-45
2022/10/18 10:11:39;;;;;;;6.57;2.70;;;;;;;;;;5009554;28;20125;-48
2022/10/18 10:14:22;;;;;;;9.63;2.70;;;;;;;;;;5002224;28;20088;-46
2022/10/18 10:17:02;;;;;;;2.97;2.30;;;;;;;;;;5006455;28;20046;-46
2022/10/18 10:19:28;;;;;;;12.50;3.22;;;;;;;;;;5007101;28;20211;-45
2022/10/18 10:22:06;;;;;;;7.75;2.42;;;;;;;;;;5010065;28;20076;-49
2022/10/18 10:24:34;;;;;;;5.03;2.60;;;;;;;;;;5008525;28;20442;-47
2022/10/18 10:27:03;;;;;;;10.77;3.42;;;;;;;;;;5007394;28;20033;-44
2022/10/18 10:29:44;;;;;;;4.47;2.50;;;;;;;;;;5008088;28;20034;-48
2022/10/18 10:32:12;;;;;;;4.00;2.40;;;;;;;;;;5007337;28;20036;-49
2022/10/18 10:34:37;;;;;;;4.97;2.65;;;;;;;;;;5007942;28;20151;-47
2022/10/18 10:37:04;;;;;;;8.85;2.58;;;;;;;;;;5009118;28;20137;-44
2022/10/18 10:39:29;;;;;;;8.27;2.72;;;;;;;;;;5006095;28;20014;-46
2022/10/18 10:41:58;;;;;;;5.80;2.75;;;;;;;;;;5008975;28;20034;-46
2022/10/18 10:44:34;;;;;;;5.47;2.88;;;;;;;;;;5009450;28;20030;-48
2022/10/18 10:47:00;;;;;;;5.80;2.75;;;;;;;;;;5007798;28;20037;-46
2022/10/18 10:49:37;;;;;;;5.82;3.00;;;;;;;;;;5007676;28;20085;-48
2022/10/18 10:52:04;;;;;;;6.70;3.20;;;;;;;;;;5006754;28;20370;-44
2022/10/18 10:54:35;;;;;;;8.45;2.88;;;;;;;;;;5006825;28;20026;-44
2022/10/18 10:57:15;;;;;;;13.50;2.58;;;;;;;;;;5007336;28;20365;-44
2022/10/18 10:59:52;;;;;;;4.15;2.40;;;;;;;;;;5006583;28;20553;-44
2022/10/18 11:02:28;;;;;;;5.45;2.70;;;;;;;;;;5007268;28;20033;-44
2022/10/18 11:04:55;;;;;;;3.72;2.58;;;;;;;;;;5006832;28;20037;-44
2022/10/18 11:07:40;;;;;;;5.30;2.50;;;;;;;;;;5005013;28;20351;-44
2022/10/18 11:10:15;;;;;;;8.35;2.97;;;;;;;;;;5006629;28;20537;-48
2022/10/18 11:13:01;;;;;;;12.15;3.17;;;;;;;;;;5007820;28;20088;-45
2022/10/18 11:15:44;;;;;;;6.18;2.95;;;;;;;;;;5004618;28;20042;-45
2022/10/18 11:18:13;;;;;;;8.43;3.38;;;;;;;;;;5007272;28;20025;-43
2022/10/18 11:20:57;;;;;;;9.25;3.83;;;;;;;;;;5008018;28;20091;-46
2022/10/18 11:23:30;;;;;;;10.38;3.10;;;;;;;;;;5007658;28;20018;-43
2022/10/18 11:26:05;;;;;;;10.25;3.30;;;;;;;;;;5008109;28;20407;-44
2022/10/18 11:29:01;;;;;;;5.70;2.90;;;;;;;;;;5007027;28;20026;-45
2022/10/18 11:31:36;;;;;;;7.88;2.92;;;;;;;;;;5007844;28;20490;-44
2022/10/18 11:34:02;;;;;;;14.50;3.03;;;;;;;;;;5006661;28;20021;-46
2022/10/18 11:37:01;;;;;;;4.97;3.00;;;;;;;;;;5008130;28;20128;-44
2022/10/18 11:39:33;;;;;;;12.70;2.65;;;;;;;;;;5007771;28;20030;-43
2022/10/18 11:42:06;;;;;;;8.68;2.75;;;;;;;;;;5008833;28;20046;-44
2022/10/18 11:45:01;;;;;;;6.35;2.58;;;;;;;;;;5004591;28;20415;-45
2022/10/18 11:47:52;;;;;;;6.57;2.67;;;;;;;;;;5001201;28;20045;-44
2022/10/18 11:50:36;;;;;;;3.83;2.30;;;;;;;;;;5005290;28;20038;-45
2022/10/18 11:53:19;;;;;;;8.02;3.10;;;;;;;;;;5008215;28;20022;-46
2022/10/18 11:56:19;;;;;;;4.38;2.65;;;;;;;;;;5004761;28;20395;-44
2022/10/18 11:58:54;;;;;;;10.77;2.90;;;;;;;;;;5009030;28;20102;-43
2022/10/18 12:01:25;;;;;;;5.32;2.15;;;;;;;;;;5007635;28;20026;-45
2022/10/18 12:03:58;;;;;;;2.70;1.90;;;;;;;;;;5004978;28;20022;-43
2022/10/18 12:06:31;;;;;;;5.15;2.20;;;;;;;;;;5006838;28;20042;-44
2022/10/18 12:09:02;;;;;;;2.33;1.90;;;;;;;;;;5005472;28;20136;-46
2022/10/18 12:11:38;;;;;;;9.07;2.33;;;;;;;;;;5005090;28;20042;-44
2022/10/18 12:14:32;;;;;;;5.40;2.63;;;;;;;;;;5004983;28;20033;-44
2022/10/18 12:17:03;;;;;;;10.35;2.90;;;;;;;;;;5007553;28;20694;-46
2022/10/18 12:19:31;;;;;;;6.95;2.38;;;;;;;;;;5004038;28;20117;-45
2022/10/18 12:22:09;;;;;;;7.47;3.03;;;;;;;;;;5007517;28;20375;-44
2022/10/18 12:24:35;;;;;;;11.75;3.10;;;;;;;;;;5003651;28;20040;-49
2022/10/18 12:27:01;;;;;;;8.35;2.58;;;;;;;;;;5007033;28;20104;-46
2022/10/18 12:30:02;;;;;;;7.28;2.60;;;;;;;;;;5007332;28;20045;-47
2022/10/18 12:32:32;;;;;;;3.65;2.15;;;;;;;;;;5007190;28;20026;-46
2022/10/18 12:35:03;;;;;;;9.57;2.75;;;;;;;;;;5006051;28;20070;-45
2022/10/18 12:37:57;;;;;;;8.10;2.88;;;;;;;;;;5011074;28;20676;-44
2022/10/18 12:40:40;;;;;;;5.80;2.10;;;;;;;;;;5010206;28;20120;-46
2022/10/18 12:43:15;;;;;;;10.10;2.63;;;;;;;;;;5010556;28;20141;-46
2022/10/18 12:45:51;;;;;;;6.30;2.28;;;;;;;;;;5008644;28;20030;-44
2022/10/18 12:48:37;;;;;;;6.63;2.50;;;;;;;;;;5008182;28;20026;-44
2022/10/18 12:51:12;;;;;;;7.88;2.72;;;;;;;;;;5009831;28;20088;-45
2022/10/18 12:53:38;;;;;;;7.10;2.40;;;;;;;;;;5009863;28;20033;-44
2022/10/18 12:56:43;;;;;;;4.15;2.22;;;;;;;;;;5010898;28;20038;-45
2022/10/18 12:59:31;;;;;;;6.03;2.25;;;;;;;;;;4967982;28;20389;-44
2022/10/18 13:01:59;;;;;;;5.35;2.67;;;;;;;;;;4958374;28;20126;-43
2022/10/18 13:04:27;;;;;;;5.63;2.13;;;;;;;;;;4967951;28;20051;-45
2022/10/18 13:06:56;;;;;;;6.07;2.40;;;;;;;;;;4972874;28;20094;-44
2022/10/18 13:09:22;;;;;;;4.88;2.10;;;;;;;;;;4967993;28;20118;-45
2022/10/18 13:11:48;;;;;;;7.97;2.53;;;;;;;;;;4964250;28;20114;-44
2022/10/18 13:14:48;;;;;;;7.88;2.47;;;;;;;;;;4965488;28;20539;-44
2022/10/18 13:17:25;;;;;;;5.15;2.42;;;;;;;;;;4956004;28;20127;-46
2022/10/18 13:20:15;;;;;;;3.35;2.25;;;;;;;;;;4964638;28;20070;-44
2022/10/18 13:23:04;;;;;;;4.07;1.88;;;;;;;;;;4967239;28;20042;-44
2022/10/18 13:25:38;;;;;;;4.78;2.53;;;;;;;;;;4966090;28;20075;-44
2022/10/18 13:28:22;;;;;;;14.48;2.80;;;;;;;;;;4966328;28;20146;-43
2022/10/18 13:30:56;;;;;;;6.60;2.35;;;;;;;;;;5004365;28;20042;-44
2022/10/18 13:33:37;;;;;;;6.72;2.50;;;;;;;;;;5009955;28;20034;-46
2022/10/18 13:36:25;;;;;;;5.20;2.30;;;;;;;;;;5007449;28;20062;-48
2022/10/18 13:38:57;;;;;;;4.50;2.28;;;;;;;;;;5009324;28;20561;-43
2022/10/18 13:41:42;;;;;;;7.45;2.55;;;;;;;;;;5007942;28;20403;-45
2022/10/18 13:44:23;;;;;;;4.00;2.20;;;;;;;;;;4968798;28;20108;-47
2022/10/18 13:46:48;;;;;;;3.42;1.92;;;;;;;;;;4967143;28;20047;-46
2022/10/18 13:49:18;;;;;;;11.73;2.55;;;;;;;;;;4970736;28;20396;-45
2022/10/18 13:51:54;;;;;;;5.28;2.55;;;;;;;;;;4967278;28;20047;-45
2022/10/18 13:54:28;;;;;;;4.95;2.28;;;;;;;;;;4967695;28;20054;-47
2022/10/18 13:57:21;;;;;;;5.20;2.35;;;;;;;;;;4967685;28;20042;-43
2022/10/18 14:00:16;;;;;;;6.68;2.30;;;;;;;;;;4964890;28;20400;-44
2022/10/18 14:03:33;;;;;;;5.15;2.50;;;;;;;;;;4965561;28;20089;-45
2022/10/18 14:06:14;;;;;;;6.88;2.33;;;;;;;;;;4927395;29;20436;-46
2022/10/18 14:08:53;;;;;;;6.47;2.30;;;;;;;;;;4926995;29;20044;-44
2022/10/18 14:11:41;;;;;;;2.30;1.95;;;;;;;;;;4926142;29;20469;-43
2022/10/18 14:14:11;;;;;;;4.22;2.13;;;;;;;;;;4927882;29;20075;-47
2022/10/18 14:16:59;;;;;;;3.53;1.90;;;;;;;;;;4927301;28;20175;-49
2022/10/18 14:19:30;;;;;;;3.13;1.73;;;;;;;;;;4925899;29;20137;-46
2022/10/18 14:22:05;;;;;;;3.55;1.90;;;;;;;;;;4928059;29;20040;-44
2022/10/18 14:24:31;;;;;;;3.72;1.80;;;;;;;;;;4924353;29;20040;-48
2022/10/18 14:27:17;;;;;;;8.05;2.10;;;;;;;;;;4926736;29;20388;-45
2022/10/18 14:29:42;;;;;;;10.27;2.30;;;;;;;;;;4925287;29;20140;-45
2022/10/18 14:32:10;;;;;;;4.25;1.77;;;;;;;;;;4924928;29;20119;-43
2022/10/18 14:34:37;;;;;;;6.28;1.83;;;;;;;;;;4925977;29;20066;-44
2022/10/18 14:37:02;;;;;;;3.15;1.85;;;;;;;;;;4978397;28;20120;-45
2022/10/18 14:39:29;;;;;;;6.38;2.13;;;;;;;;;;5008240;28;20475;-44
2022/10/18 14:41:56;;;;;;;4.00;1.90;;;;;;;;;;5009790;28;20049;-44
2022/10/18 14:44:25;;;;;;;7.45;2.00;;;;;;;;;;5008515;28;20044;-45
2022/10/18 14:46:59;;;;;;;7.82;2.17;;;;;;;;;;5006626;28;20095;-45
2022/10/18 14:49:25;;;;;;;4.65;2.20;;;;;;;;;;5003250;28;20018;-44
2022/10/18 14:51:54;;;;;;;6.57;2.10;;;;;;;;;;5007889;28;20074;-47
2022/10/18 14:54:24;;;;;;;4.63;2.00;;;;;;;;;;5008463;28;20033;-45
2022/10/18 14:56:49;;;;;;;7.18;2.53;;;;;;;;;;5008501;28;20512;-45
2022/10/18 14:59:19;;;;;;;5.32;2.00;;;;;;;;;;5007600;28;20105;-48
2022/10/18 15:02:05;;;;;;;6.05;1.95;;;;;;;;;;5006876;28;20046;-45
2022/10/18 15:04:32;;;;;;;7.60;2.10;;;;;;;;;;5003970;28;20490;-46
2022/10/18 15:07:06;;;;;;;8.15;2.38;;;;;;;;;;5009516;28;20034;-46
2022/10/18 15:09:33;;;;;;;2.92;2.05;;;;;;;;;;5007619;28;20057;-48